sensor_id;sensor_type;location;lat;lon;timestamp;P1;durP1;ratioP1;P2;durP2;ratioP2
21550;SDS011;10936;49.836;7.078;2022-08-20T05:02:10;4.57;;;1.10;;
21550;SDS011;10936;49.836;7.078;2022-08-20T05:04:36;1.65;;;1.10;;
21550;SDS011;10936;49.836;7.078;2022-08-20T05:07:02;1.02;;;0.88;;
21550;SDS011;10936;49.836;7.078;2022-08-20T05:09:27;0.95;;;0.88;;
21550;SDS011;10936;49.836;7.078;2022-08-20T05:11:56;1.65;;;0.98;;
21550;SDS011;10936;49.836;7.078;2022-08-20T05:14:21;2.90;;;0.70;;
21550;SDS011;10936;49.836;7.078;2022-08-20T05:16:47;0.95;;;0.90;;
21550;SDS011;10936;49.836;7.078;2022-08-20T05:19:14;2.20;;;0.82;;
21550;SDS011;10936;49.836;7.078;2022-08-20T05:21:41;1.83;;;1.00;;
21550;SDS011;10936;49.836;7.078;2022-08-20T05:24:07;4.00;;;1.00;;
21550;SDS011;10936;49.836;7.078;2022-08-20T05:26:34;1.45;;;1.20;;
21550;SDS011;10936;49.836;7.078;2022-08-20T05:29:00;2.10;;;0.90;;
21550;SDS011;10936;49.836;7.078;2022-08-20T05:31:29;1.75;;;1.10;;
21550;SDS011;10936;49.836;7.078;2022-08-20T05:33:57;0.90;;;0.90;;
21550;SDS011;10936;49.836;7.078;2022-08-20T05:36:22;1.00;;;0.90;;
21550;SDS011;10936;49.836;7.078;2022-08-20T05:38:48;1.58;;;0.77;;
21550;SDS011;10936;49.836;7.078;2022-08-20T05:41:15;2.78;;;0.90;;
21550;SDS011;10936;49.836;7.078;2022-08-20T05:43:42;1.15;;;0.73;;
21550;SDS011;10936;49.836;7.078;2022-08-20T05:46:08;1.35;;;0.88;;
21550;SDS011;10936;49.836;7.078;2022-08-20T05:48:34;1.55;;;0.80;;
21550;SDS011;10936;49.836;7.078;2022-08-20T05:50:59;3.33;;;1.17;;
21550;SDS011;10936;49.836;7.078;2022-08-20T05:53:25;1.75;;;0.75;;
21550;SDS011;10936;49.836;7.078;2022-08-20T05:55:51;0.68;;;0.60;;
21550;SDS011;10936;49.836;7.078;2022-08-20T05:58:19;1.17;;;0.90;;
21550;SDS011;10936;49.836;7.078;2022-08-20T06:00:50;1.38;;;0.82;;
21550;SDS011;10936;49.836;7.078;2022-08-20T06:03:17;1.30;;;0.90;;
21550;SDS011;10936;49.836;7.078;2022-08-20T06:06:02;1.05;;;0.90;;
21550;SDS011;10936;49.836;7.078;2022-08-20T06:08:28;0.80;;;0.70;;
21550;SDS011;10936;49.836;7.078;2022-08-20T06:10:54;1.35;;;0.70;;
21550;SDS011;10936;49.836;7.078;2022-08-20T06:13:20;1.50;;;0.80;;
21550;SDS011;10936;49.836;7.078;2022-08-20T06:15:46;1.45;;;0.88;;
21550;SDS011;10936;49.836;7.078;2022-08-20T06:18:12;0.90;;;0.70;;
21550;SDS011;10936;49.836;7.078;2022-08-20T06:20:38;0.63;;;0.60;;
21550;SDS011;10936;49.836;7.078;2022-08-20T06:23:05;1.98;;;0.80;;
21550;SDS011;10936;49.836;7.078;2022-08-20T06:25:32;1.40;;;0.70;;
21550;SDS011;10936;49.836;7.078;2022-08-20T06:28:02;1.20;;;0.80;;
21550;SDS011;10936;49.836;7.078;2022-08-20T06:30:28;2.22;;;0.75;;
21550;SDS011;10936;49.836;7.078;2022-08-20T06:32:55;1.10;;;0.80;;
21550;SDS011;10936;49.836;7.078;2022-08-20T06:35:20;1.35;;;0.85;;
21550;SDS011;10936;49.836;7.078;2022-08-20T06:37:46;0.77;;;0.77;;
21550;SDS011;10936;49.836;7.078;2022-08-20T06:40:18;0.80;;;0.80;;
21550;SDS011;10936;49.836;7.078;2022-08-20T06:42:47;1.17;;;0.90;;
21550;SDS011;10936;49.836;7.078;2022-08-20T06:45:14;1.13;;;0.80;;
21550;SDS011;10936;49.836;7.078;2022-08-20T06:47:48;0.90;;;0.90;;
21550;SDS011;10936;49.836;7.078;2022-08-20T06:50:16;0.90;;;0.70;;
21550;SDS011;10936;49.836;7.078;2022-08-20T06:52:44;0.63;;;0.60;;
21550;SDS011;10936;49.836;7.078;2022-08-20T06:55:12;2.90;;;0.80;;
21550;SDS011;10936;49.836;7.078;2022-08-20T06:57:38;0.85;;;0.75;;
21550;SDS011;10936;49.836;7.078;2022-08-20T07:00:06;1.35;;;0.80;;
21550;SDS011;10936;49.836;7.078;2022-08-20T07:02:33;1.75;;;0.80;;
21550;SDS011;10936;49.836;7.078;2022-08-20T07:05:01;2.88;;;0.70;;
21550;SDS011;10936;49.836;7.078;2022-08-20T07:07:28;1.00;;;0.70;;
21550;SDS011;10936;49.836;7.078;2022-08-20T07:09:57;2.88;;;0.82;;
21550;SDS011;10936;49.836;7.078;2022-08-20T07:12:34;1.30;;;0.60;;
21550;SDS011;10936;49.836;7.078;2022-08-20T07:15:04;0.77;;;0.75;;
21550;SDS011;10936;49.836;7.078;2022-08-20T07:17:34;0.93;;;0.88;;
21550;SDS011;10936;49.836;7.078;2022-08-20T07:20:08;1.23;;;0.70;;
21550;SDS011;10936;49.836;7.078;2022-08-20T07:22:35;0.77;;;0.68;;
21550;SDS011;10936;49.836;7.078;2022-08-20T07:25:05;2.15;;;0.60;;
21550;SDS011;10936;49.836;7.078;2022-08-20T07:27:33;0.60;;;0.60;;
21550;SDS011;10936;49.836;7.078;2022-08-20T07:29:59;1.40;;;0.73;;
21550;SDS011;10936;49.836;7.078;2022-08-20T07:32:44;0.85;;;0.70;;
21550;SDS011;10936;49.836;7.078;2022-08-20T07:35:12;1.70;;;0.70;;
21550;SDS011;10936;49.836;7.078;2022-08-20T07:37:41;0.80;;;0.80;;
21550;SDS011;10936;49.836;7.078;2022-08-20T07:40:14;1.00;;;0.65;;
21550;SDS011;10936;49.836;7.078;2022-08-20T07:42:41;1.70;;;0.70;;
21550;SDS011;10936;49.836;7.078;2022-08-20T07:45:07;1.52;;;0.90;;
21550;SDS011;10936;49.836;7.078;2022-08-20T07:47:35;1.00;;;0.70;;
21550;SDS011;10936;49.836;7.078;2022-08-20T07:50:03;1.55;;;0.60;;
21550;SDS011;10936;49.836;7.078;2022-08-20T07:52:30;0.60;;;0.60;;
21550;SDS011;10936;49.836;7.078;2022-08-20T07:54:55;0.70;;;0.50;;
21550;SDS011;10936;49.836;7.078;2022-08-20T07:57:21;0.63;;;0.63;;
21550;SDS011;10936;49.836;7.078;2022-08-20T07:59:47;1.60;;;0.70;;
21550;SDS011;10936;49.836;7.078;2022-08-20T08:02:13;1.38;;;0.80;;
21550;SDS011;10936;49.836;7.078;2022-08-20T08:04:38;0.70;;;0.70;;
21550;SDS011;10936;49.836;7.078;2022-08-20T08:07:04;0.93;;;0.60;;
21550;SDS011;10936;49.836;7.078;2022-08-20T08:09:31;1.58;;;0.80;;
21550;SDS011;10936;49.836;7.078;2022-08-20T08:11:58;2.05;;;0.85;;
21550;SDS011;10936;49.836;7.078;2022-08-20T08:14:27;0.65;;;0.60;;
21550;SDS011;10936;49.836;7.078;2022-08-20T08:16:56;2.05;;;1.10;;
21550;SDS011;10936;49.836;7.078;2022-08-20T08:19:24;1.05;;;0.63;;
21550;SDS011;10936;49.836;7.078;2022-08-20T08:21:52;1.77;;;0.70;;
21550;SDS011;10936;49.836;7.078;2022-08-20T08:24:19;1.48;;;0.70;;
21550;SDS011;10936;49.836;7.078;2022-08-20T08:26:44;0.68;;;0.68;;
21550;SDS011;10936;49.836;7.078;2022-08-20T08:29:14;1.65;;;0.50;;
21550;SDS011;10936;49.836;7.078;2022-08-20T08:31:41;1.40;;;0.60;;
21550;SDS011;10936;49.836;7.078;2022-08-20T08:34:07;0.73;;;0.60;;
21550;SDS011;10936;49.836;7.078;2022-08-20T08:36:33;3.85;;;0.90;;
21550;SDS011;10936;49.836;7.078;2022-08-20T08:38:58;1.20;;;0.73;;
21550;SDS011;10936;49.836;7.078;2022-08-20T08:46:39;5.38;;;0.80;;
21550;SDS011;10936;49.836;7.078;2022-08-20T08:49:12;4.90;;;0.80;;
21550;SDS011;10936;49.836;7.078;2022-08-20T08:51:48;1.00;;;0.70;;
21550;SDS011;10936;49.836;7.078;2022-08-20T08:54:21;0.52;;;0.50;;
21550;SDS011;10936;49.836;7.078;2022-08-20T08:56:48;1.60;;;0.77;;
21550;SDS011;10936;49.836;7.078;2022-08-20T08:59:15;0.80;;;0.80;;
21550;SDS011;10936;49.836;7.078;2022-08-20T09:01:52;0.95;;;0.82;;
21550;SDS011;10936;49.836;7.078;2022-08-20T09:04:19;1.13;;;0.82;;
21550;SDS011;10936;49.836;7.078;2022-08-20T09:06:46;1.25;;;0.80;;
21550;SDS011;10936;49.836;7.078;2022-08-20T09:09:17;0.85;;;0.60;;
21550;SDS011;10936;49.836;7.078;2022-08-20T09:11:49;1.25;;;0.73;;
21550;SDS011;10936;49.836;7.078;2022-08-20T09:14:20;1.17;;;0.63;;
21550;SDS011;10936;49.836;7.078;2022-08-20T09:16:48;3.10;;;0.80;;
21550;SDS011;10936;49.836;7.078;2022-08-20T09:19:15;1.10;;;0.60;;
21550;SDS011;10936;49.836;7.078;2022-08-20T09:21:41;0.73;;;0.70;;
21550;SDS011;10936;49.836;7.078;2022-08-20T09:24:07;1.27;;;0.70;;
21550;SDS011;10936;49.836;7.078;2022-08-20T09:26:32;1.92;;;0.70;;
21550;SDS011;10936;49.836;7.078;2022-08-20T09:28:58;2.30;;;0.80;;
21550;SDS011;10936;49.836;7.078;2022-08-20T09:31:24;2.58;;;0.70;;
21550;SDS011;10936;49.836;7.078;2022-08-20T09:33:50;1.30;;;0.80;;
21550;SDS011;10936;49.836;7.078;2022-08-20T09:36:17;1.30;;;0.88;;
21550;SDS011;10936;49.836;7.078;2022-08-20T09:38:43;0.85;;;0.70;;
21550;SDS011;10936;49.836;7.078;2022-08-20T09:41:09;2.35;;;0.70;;
21550;SDS011;10936;49.836;7.078;2022-08-20T09:43:35;1.13;;;0.80;;
21550;SDS011;10936;49.836;7.078;2022-08-20T09:46:01;0.98;;;0.60;;
21550;SDS011;10936;49.836;7.078;2022-08-20T09:48:26;1.60;;;1.08;;
21550;SDS011;10936;49.836;7.078;2022-08-20T09:50:52;1.10;;;0.80;;
21550;SDS011;10936;49.836;7.078;2022-08-20T09:53:18;1.75;;;0.85;;
21550;SDS011;10936;49.836;7.078;2022-08-20T09:55:45;4.57;;;1.33;;
21550;SDS011;10936;49.836;7.078;2022-08-20T10:00:40;1.27;;;0.70;;
21550;SDS011;10936;49.836;7.078;2022-08-20T10:03:06;1.23;;;0.65;;
21550;SDS011;10936;49.836;7.078;2022-08-20T10:05:32;1.50;;;0.80;;
21550;SDS011;10936;49.836;7.078;2022-08-20T10:07:57;0.88;;;0.70;;
21550;SDS011;10936;49.836;7.078;2022-08-20T10:10:23;1.33;;;1.17;;
21550;SDS011;10936;49.836;7.078;2022-08-20T10:12:48;3.00;;;0.82;;
21550;SDS011;10936;49.836;7.078;2022-08-20T10:15:14;1.73;;;0.80;;
21550;SDS011;10936;49.836;7.078;2022-08-20T10:17:40;1.02;;;0.75;;
21550;SDS011;10936;49.836;7.078;2022-08-20T10:20:07;2.00;;;0.70;;
21550;SDS011;10936;49.836;7.078;2022-08-20T10:22:35;0.90;;;0.70;;
21550;SDS011;10936;49.836;7.078;2022-08-20T10:25:02;1.92;;;0.70;;
21550;SDS011;10936;49.836;7.078;2022-08-20T10:27:28;0.98;;;0.93;;
21550;SDS011;10936;49.836;7.078;2022-08-20T10:29:54;0.93;;;0.75;;
21550;SDS011;10936;49.836;7.078;2022-08-20T10:32:19;2.03;;;0.60;;
21550;SDS011;10936;49.836;7.078;2022-08-20T10:34:45;2.25;;;0.73;;
21550;SDS011;10936;49.836;7.078;2022-08-20T10:37:15;1.33;;;0.57;;
21550;SDS011;10936;49.836;7.078;2022-08-20T10:39:45;1.30;;;0.68;;
21550;SDS011;10936;49.836;7.078;2022-08-20T10:42:11;0.82;;;0.82;;
21550;SDS011;10936;49.836;7.078;2022-08-20T10:44:37;1.38;;;0.73;;
21550;SDS011;10936;49.836;7.078;2022-08-20T10:49:59;0.90;;;0.70;;
21550;SDS011;10936;49.836;7.078;2022-08-20T10:52:26;2.15;;;0.70;;
21550;SDS011;10936;49.836;7.078;2022-08-20T10:54:52;3.20;;;0.80;;
21550;SDS011;10936;49.836;7.078;2022-08-20T10:57:19;1.05;;;0.70;;
21550;SDS011;10936;49.836;7.078;2022-08-20T10:59:47;2.25;;;0.60;;
21550;SDS011;10936;49.836;7.078;2022-08-20T11:02:15;1.60;;;0.70;;
21550;SDS011;10936;49.836;7.078;2022-08-20T11:04:41;1.40;;;0.80;;
21550;SDS011;10936;49.836;7.078;2022-08-20T11:09:48;1.35;;;0.80;;
21550;SDS011;10936;49.836;7.078;2022-08-20T11:12:15;1.25;;;0.70;;
21550;SDS011;10936;49.836;7.078;2022-08-20T11:14:42;2.35;;;0.70;;
21550;SDS011;10936;49.836;7.078;2022-08-20T11:17:08;0.60;;;0.60;;
21550;SDS011;10936;49.836;7.078;2022-08-20T11:19:38;1.00;;;0.70;;
21550;SDS011;10936;49.836;7.078;2022-08-20T11:22:05;1.17;;;0.80;;
21550;SDS011;10936;49.836;7.078;2022-08-20T11:24:31;1.52;;;0.70;;
21550;SDS011;10936;49.836;7.078;2022-08-20T11:26:57;1.08;;;0.80;;
21550;SDS011;10936;49.836;7.078;2022-08-20T11:29:22;0.57;;;0.57;;
21550;SDS011;10936;49.836;7.078;2022-08-20T11:31:49;1.38;;;0.70;;
21550;SDS011;10936;49.836;7.078;2022-08-20T11:34:15;1.83;;;0.75;;
21550;SDS011;10936;49.836;7.078;2022-08-20T11:36:42;0.85;;;0.70;;
21550;SDS011;10936;49.836;7.078;2022-08-20T11:39:09;1.38;;;0.80;;
21550;SDS011;10936;49.836;7.078;2022-08-20T11:41:35;1.42;;;0.90;;
21550;SDS011;10936;49.836;7.078;2022-08-20T11:44:00;2.50;;;0.95;;
21550;SDS011;10936;49.836;7.078;2022-08-20T11:46:26;0.90;;;0.80;;
21550;SDS011;10936;49.836;7.078;2022-08-20T11:48:52;1.20;;;0.70;;
21550;SDS011;10936;49.836;7.078;2022-08-20T11:51:17;1.88;;;1.00;;
21550;SDS011;10936;49.836;7.078;2022-08-20T11:53:43;2.05;;;0.85;;
21550;SDS011;10936;49.836;7.078;2022-08-20T11:56:09;0.82;;;0.70;;
21550;SDS011;10936;49.836;7.078;2022-08-20T11:58:36;3.15;;;0.93;;
21550;SDS011;10936;49.836;7.078;2022-08-20T12:01:02;2.38;;;0.90;;
21550;SDS011;10936;49.836;7.078;2022-08-20T12:03:27;1.40;;;0.80;;
21550;SDS011;10936;49.836;7.078;2022-08-20T12:05:54;0.80;;;0.68;;
21550;SDS011;10936;49.836;7.078;2022-08-20T12:08:21;0.90;;;0.75;;
21550;SDS011;10936;49.836;7.078;2022-08-20T12:10:47;1.23;;;0.90;;
21550;SDS011;10936;49.836;7.078;2022-08-20T12:13:13;1.58;;;0.90;;
21550;SDS011;10936;49.836;7.078;2022-08-20T12:15:39;0.77;;;0.70;;
21550;SDS011;10936;49.836;7.078;2022-08-20T12:18:05;1.55;;;0.80;;
21550;SDS011;10936;49.836;7.078;2022-08-20T12:20:31;1.55;;;0.77;;
21550;SDS011;10936;49.836;7.078;2022-08-20T12:22:57;1.13;;;0.95;;
21550;SDS011;10936;49.836;7.078;2022-08-20T12:25:23;1.02;;;0.80;;
21550;SDS011;10936;49.836;7.078;2022-08-20T12:27:49;1.02;;;0.80;;
21550;SDS011;10936;49.836;7.078;2022-08-20T12:30:16;1.50;;;0.90;;
21550;SDS011;10936;49.836;7.078;2022-08-20T12:32:44;1.80;;;0.88;;
21550;SDS011;10936;49.836;7.078;2022-08-20T12:35:11;1.63;;;0.77;;
21550;SDS011;10936;49.836;7.078;2022-08-20T12:37:38;2.10;;;0.80;;
21550;SDS011;10936;49.836;7.078;2022-08-20T12:40:05;1.05;;;0.88;;
21550;SDS011;10936;49.836;7.078;2022-08-20T12:42:34;1.00;;;0.77;;
21550;SDS011;10936;49.836;7.078;2022-08-20T12:45:00;1.67;;;0.75;;
21550;SDS011;10936;49.836;7.078;2022-08-20T12:47:28;2.45;;;0.90;;
21550;SDS011;10936;49.836;7.078;2022-08-20T12:50:00;1.95;;;0.80;;
21550;SDS011;10936;49.836;7.078;2022-08-20T12:52:34;0.85;;;0.80;;
21550;SDS011;10936;49.836;7.078;2022-08-20T12:55:00;1.23;;;0.80;;
21550;SDS011;10936;49.836;7.078;2022-08-20T12:59:55;1.38;;;0.80;;
21550;SDS011;10936;49.836;7.078;2022-08-20T13:02:22;1.05;;;0.93;;
21550;SDS011;10936;49.836;7.078;2022-08-20T13:04:48;1.30;;;1.00;;
21550;SDS011;10936;49.836;7.078;2022-08-20T13:07:14;0.70;;;0.70;;
21550;SDS011;10936;49.836;7.078;2022-08-20T13:09:40;0.75;;;0.75;;
21550;SDS011;10936;49.836;7.078;2022-08-20T13:12:07;2.92;;;1.10;;
21550;SDS011;10936;49.836;7.078;2022-08-20T13:14:34;0.90;;;0.90;;
21550;SDS011;10936;49.836;7.078;2022-08-20T13:17:00;4.25;;;1.00;;
21550;SDS011;10936;49.836;7.078;2022-08-20T13:19:28;0.82;;;0.75;;
21550;SDS011;10936;49.836;7.078;2022-08-20T13:21:54;1.45;;;0.80;;
21550;SDS011;10936;49.836;7.078;2022-08-20T13:24:20;1.33;;;1.10;;
21550;SDS011;10936;49.836;7.078;2022-08-20T13:26:46;1.00;;;0.88;;
21550;SDS011;10936;49.836;7.078;2022-08-20T13:29:13;1.02;;;0.95;;
21550;SDS011;10936;49.836;7.078;2022-08-20T13:31:40;1.17;;;0.90;;
21550;SDS011;10936;49.836;7.078;2022-08-20T13:34:06;1.00;;;0.90;;
21550;SDS011;10936;49.836;7.078;2022-08-20T13:36:32;1.17;;;0.98;;
21550;SDS011;10936;49.836;7.078;2022-08-20T13:38:58;1.23;;;1.10;;
21550;SDS011;10936;49.836;7.078;2022-08-20T13:41:25;1.48;;;0.90;;
21550;SDS011;10936;49.836;7.078;2022-08-20T13:43:50;1.60;;;1.00;;
21550;SDS011;10936;49.836;7.078;2022-08-20T13:46:16;1.05;;;0.80;;
21550;SDS011;10936;49.836;7.078;2022-08-20T13:48:42;1.15;;;0.90;;
21550;SDS011;10936;49.836;7.078;2022-08-20T13:51:08;1.70;;;1.00;;
21550;SDS011;10936;49.836;7.078;2022-08-20T13:53:34;1.40;;;1.20;;
21550;SDS011;10936;49.836;7.078;2022-08-20T13:55:59;1.55;;;0.98;;
21550;SDS011;10936;49.836;7.078;2022-08-20T13:58:25;1.17;;;1.00;;
21550;SDS011;10936;49.836;7.078;2022-08-20T14:00:51;1.30;;;0.80;;
21550;SDS011;10936;49.836;7.078;2022-08-20T14:03:17;1.70;;;1.20;;
21550;SDS011;10936;49.836;7.078;2022-08-20T14:05:43;1.80;;;1.02;;
21550;SDS011;10936;49.836;7.078;2022-08-20T14:10:39;1.45;;;0.90;;
21550;SDS011;10936;49.836;7.078;2022-08-20T14:13:06;1.27;;;1.00;;
21550;SDS011;10936;49.836;7.078;2022-08-20T14:15:32;1.50;;;0.90;;
21550;SDS011;10936;49.836;7.078;2022-08-20T14:17:59;2.33;;;1.05;;
21550;SDS011;10936;49.836;7.078;2022-08-20T14:20:26;1.40;;;1.10;;
21550;SDS011;10936;49.836;7.078;2022-08-20T14:22:53;1.00;;;0.90;;
21550;SDS011;10936;49.836;7.078;2022-08-20T14:25:20;2.75;;;1.20;;
21550;SDS011;10936;49.836;7.078;2022-08-20T14:27:47;1.73;;;1.00;;
21550;SDS011;10936;49.836;7.078;2022-08-20T14:30:14;5.45;;;1.10;;
21550;SDS011;10936;49.836;7.078;2022-08-20T14:32:42;4.07;;;1.10;;
21550;SDS011;10936;49.836;7.078;2022-08-20T14:35:08;1.50;;;1.25;;
21550;SDS011;10936;49.836;7.078;2022-08-20T14:37:36;2.47;;;1.20;;
21550;SDS011;10936;49.836;7.078;2022-08-20T14:40:04;2.13;;;1.27;;
21550;SDS011;10936;49.836;7.078;2022-08-20T14:42:32;1.92;;;1.08;;
21550;SDS011;10936;49.836;7.078;2022-08-20T14:44:58;1.63;;;1.00;;
21550;SDS011;10936;49.836;7.078;2022-08-20T14:47:30;1.40;;;1.00;;
21550;SDS011;10936;49.836;7.078;2022-08-20T14:49:59;1.83;;;1.00;;
21550;SDS011;10936;49.836;7.078;2022-08-20T14:52:28;1.20;;;1.10;;
21550;SDS011;10936;49.836;7.078;2022-08-20T14:54:55;4.25;;;1.30;;
21550;SDS011;10936;49.836;7.078;2022-08-20T14:57:21;1.55;;;0.90;;
21550;SDS011;10936;49.836;7.078;2022-08-20T14:59:47;1.55;;;0.98;;
21550;SDS011;10936;49.836;7.078;2022-08-20T15:02:15;1.65;;;1.08;;
21550;SDS011;10936;49.836;7.078;2022-08-20T15:04:41;2.85;;;1.27;;
21550;SDS011;10936;49.836;7.078;2022-08-20T15:07:13;2.58;;;1.40;;
21550;SDS011;10936;49.836;7.078;2022-08-20T15:09:45;1.05;;;1.00;;
21550;SDS011;10936;49.836;7.078;2022-08-20T15:12:11;1.63;;;1.17;;
21550;SDS011;10936;49.836;7.078;2022-08-20T15:14:36;3.55;;;1.27;;
21550;SDS011;10936;49.836;7.078;2022-08-20T15:17:02;3.47;;;1.25;;
21550;SDS011;10936;49.836;7.078;2022-08-20T15:19:28;1.60;;;1.13;;
21550;SDS011;10936;49.836;7.078;2022-08-20T15:21:53;1.35;;;1.10;;
21550;SDS011;10936;49.836;7.078;2022-08-20T15:24:19;3.28;;;1.30;;
21550;SDS011;10936;49.836;7.078;2022-08-20T15:26:45;1.13;;;0.93;;
21550;SDS011;10936;49.836;7.078;2022-08-20T15:29:11;2.17;;;0.90;;
21550;SDS011;10936;49.836;7.078;2022-08-20T15:31:38;2.17;;;1.25;;
21550;SDS011;10936;49.836;7.078;2022-08-20T15:34:03;2.03;;;1.27;;
21550;SDS011;10936;49.836;7.078;2022-08-20T15:36:29;2.63;;;1.40;;
21550;SDS011;10936;49.836;7.078;2022-08-20T15:38:54;2.72;;;1.45;;
21550;SDS011;10936;49.836;7.078;2022-08-20T15:41:20;1.13;;;1.02;;
21550;SDS011;10936;49.836;7.078;2022-08-20T15:43:46;2.58;;;1.30;;
21550;SDS011;10936;49.836;7.078;2022-08-20T15:46:11;2.63;;;1.52;;
21550;SDS011;10936;49.836;7.078;2022-08-20T15:48:38;2.10;;;1.55;;
21550;SDS011;10936;49.836;7.078;2022-08-20T15:51:13;2.17;;;1.10;;
21550;SDS011;10936;49.836;7.078;2022-08-20T16:16:44;2.08;;;1.10;;
21550;SDS011;10936;49.836;7.078;2022-08-20T16:19:16;1.88;;;1.02;;
21550;SDS011;10936;49.836;7.078;2022-08-20T16:21:47;2.58;;;1.38;;
21550;SDS011;10936;49.836;7.078;2022-08-20T16:24:13;1.23;;;1.10;;
21550;SDS011;10936;49.836;7.078;2022-08-20T16:26:49;1.73;;;1.27;;
21550;SDS011;10936;49.836;7.078;2022-08-20T16:29:19;1.67;;;1.15;;
21550;SDS011;10936;49.836;7.078;2022-08-20T16:32:02;2.60;;;1.27;;
21550;SDS011;10936;49.836;7.078;2022-08-20T16:34:39;2.55;;;1.10;;
21550;SDS011;10936;49.836;7.078;2022-08-20T16:40:05;2.95;;;1.10;;
21550;SDS011;10936;49.836;7.078;2022-08-20T16:42:38;1.80;;;1.00;;
21550;SDS011;10936;49.836;7.078;2022-08-20T16:45:06;1.77;;;1.23;;
21550;SDS011;10936;49.836;7.078;2022-08-20T16:47:40;2.05;;;1.05;;
21550;SDS011;10936;49.836;7.078;2022-08-20T16:50:20;1.52;;;1.30;;
21550;SDS011;10936;49.836;7.078;2022-08-20T16:52:50;1.85;;;1.10;;
21550;SDS011;10936;49.836;7.078;2022-08-20T16:55:15;3.40;;;1.40;;
21550;SDS011;10936;49.836;7.078;2022-08-20T16:57:42;2.13;;;1.30;;
21550;SDS011;10936;49.836;7.078;2022-08-20T17:05:26;2.28;;;1.17;;
21550;SDS011;10936;49.836;7.078;2022-08-20T17:08:06;2.30;;;1.20;;
21550;SDS011;10936;49.836;7.078;2022-08-20T17:13:36;1.40;;;1.08;;
21550;SDS011;10936;49.836;7.078;2022-08-20T17:16:15;1.63;;;1.15;;
21550;SDS011;10936;49.836;7.078;2022-08-20T17:18:47;2.28;;;1.30;;
21550;SDS011;10936;49.836;7.078;2022-08-20T17:21:25;2.15;;;1.38;;
21550;SDS011;10936;49.836;7.078;2022-08-20T17:23:56;1.95;;;1.52;;
21550;SDS011;10936;49.836;7.078;2022-08-20T17:28:52;1.90;;;1.25;;
21550;SDS011;10936;49.836;7.078;2022-08-20T17:31:33;3.38;;;1.58;;
21550;SDS011;10936;49.836;7.078;2022-08-20T17:34:04;2.10;;;1.42;;
21550;SDS011;10936;49.836;7.078;2022-08-20T17:36:37;2.35;;;1.40;;
21550;SDS011;10936;49.836;7.078;2022-08-20T17:39:16;2.15;;;1.25;;
21550;SDS011;10936;49.836;7.078;2022-08-20T17:41:46;4.53;;;1.40;;
21550;SDS011;10936;49.836;7.078;2022-08-20T17:44:21;2.35;;;1.35;;
21550;SDS011;10936;49.836;7.078;2022-08-20T17:46:57;2.50;;;1.40;;
21550;SDS011;10936;49.836;7.078;2022-08-20T17:49:32;2.25;;;1.38;;
21550;SDS011;10936;49.836;7.078;2022-08-20T17:52:10;2.65;;;1.38;;
21550;SDS011;10936;49.836;7.078;2022-08-20T17:54:43;2.55;;;1.50;;
21550;SDS011;10936;49.836;7.078;2022-08-20T17:57:12;2.65;;;1.30;;
21550;SDS011;10936;49.836;7.078;2022-08-20T17:59:42;1.90;;;1.45;;
21550;SDS011;10936;49.836;7.078;2022-08-20T18:02:13;2.97;;;1.40;;
21550;SDS011;10936;49.836;7.078;2022-08-20T18:04:39;3.38;;;1.52;;
21550;SDS011;10936;49.836;7.078;2022-08-20T18:09:44;4.18;;;1.60;;
21550;SDS011;10936;49.836;7.078;2022-08-20T18:12:20;1.95;;;1.33;;
21550;SDS011;10936;49.836;7.078;2022-08-20T18:17:53;2.53;;;1.30;;
21550;SDS011;10936;49.836;7.078;2022-08-20T18:20:46;2.60;;;1.50;;
21550;SDS011;10936;49.836;7.078;2022-08-20T18:23:15;2.63;;;1.42;;
21550;SDS011;10936;49.836;7.078;2022-08-20T18:28:18;3.83;;;1.80;;
21550;SDS011;10936;49.836;7.078;2022-08-20T18:30:56;1.85;;;1.30;;
21550;SDS011;10936;49.836;7.078;2022-08-20T18:33:41;2.33;;;1.50;;
21550;SDS011;10936;49.836;7.078;2022-08-20T18:38:42;7.15;;;2.50;;
21550;SDS011;10936;49.836;7.078;2022-08-20T18:44:09;6.03;;;2.00;;
21550;SDS011;10936;49.836;7.078;2022-08-20T18:46:36;3.53;;;1.80;;
21550;SDS011;10936;49.836;7.078;2022-08-20T18:49:24;5.53;;;2.22;;
21550;SDS011;10936;49.836;7.078;2022-08-20T18:51:52;3.15;;;2.00;;
21550;SDS011;10936;49.836;7.078;2022-08-20T18:54:22;4.32;;;2.10;;
21550;SDS011;10936;49.836;7.078;2022-08-20T18:57:01;7.03;;;2.60;;
21550;SDS011;10936;49.836;7.078;2022-08-20T18:59:33;4.80;;;2.30;;
21550;SDS011;10936;49.836;7.078;2022-08-20T19:02:16;4.25;;;2.17;;
21550;SDS011;10936;49.836;7.078;2022-08-20T19:04:51;3.88;;;2.08;;
21550;SDS011;10936;49.836;7.078;2022-08-20T19:07:18;4.18;;;2.38;;
21550;SDS011;10936;49.836;7.078;2022-08-20T19:15:35;4.90;;;2.33;;
21550;SDS011;10936;49.836;7.078;2022-08-20T19:18:07;6.55;;;2.53;;
21550;SDS011;10936;49.836;7.078;2022-08-20T19:20:52;4.20;;;2.25;;
21550;SDS011;10936;49.836;7.078;2022-08-20T19:23:21;4.40;;;2.63;;
21550;SDS011;10936;49.836;7.078;2022-08-20T19:28:23;6.07;;;2.60;;
21550;SDS011;10936;49.836;7.078;2022-08-20T19:30:52;3.47;;;2.13;;
21550;SDS011;10936;49.836;7.078;2022-08-20T19:33:25;7.07;;;2.22;;
21550;SDS011;10936;49.836;7.078;2022-08-20T19:35:52;5.03;;;2.30;;
21550;SDS011;10936;49.836;7.078;2022-08-20T19:38:18;4.18;;;2.42;;
21550;SDS011;10936;49.836;7.078;2022-08-20T19:40:45;3.63;;;2.28;;
21550;SDS011;10936;49.836;7.078;2022-08-20T19:43:13;4.40;;;2.40;;
21550;SDS011;10936;49.836;7.078;2022-08-20T19:45:51;4.38;;;2.28;;
21550;SDS011;10936;49.836;7.078;2022-08-20T19:50:50;6.25;;;2.42;;
21550;SDS011;10936;49.836;7.078;2022-08-20T19:53:28;3.80;;;2.00;;
21550;SDS011;10936;49.836;7.078;2022-08-20T19:58:34;5.25;;;2.42;;
21550;SDS011;10936;49.836;7.078;2022-08-20T20:01:01;5.22;;;2.17;;
21550;SDS011;10936;49.836;7.078;2022-08-20T20:03:31;3.70;;;2.20;;
21550;SDS011;10936;49.836;7.078;2022-08-20T20:08:29;2.72;;;2.20;;
21550;SDS011;10936;49.836;7.078;2022-08-20T20:11:05;5.38;;;2.63;;
21550;SDS011;10936;49.836;7.078;2022-08-20T20:13:31;3.47;;;2.22;;
21550;SDS011;10936;49.836;7.078;2022-08-20T20:15:57;6.00;;;2.97;;
21550;SDS011;10936;49.836;7.078;2022-08-20T20:18:28;3.30;;;2.13;;
21550;SDS011;10936;49.836;7.078;2022-08-20T20:21:06;3.55;;;2.45;;
21550;SDS011;10936;49.836;7.078;2022-08-20T20:23:39;2.78;;;2.13;;
21550;SDS011;10936;49.836;7.078;2022-08-20T20:26:06;4.93;;;2.70;;
21550;SDS011;10936;49.836;7.078;2022-08-20T20:31:11;3.92;;;2.50;;
21550;SDS011;10936;49.836;7.078;2022-08-20T20:33:42;4.80;;;1.90;;
21550;SDS011;10936;49.836;7.078;2022-08-20T20:36:11;4.45;;;2.40;;
21550;SDS011;10936;49.836;7.078;2022-08-20T20:41:51;2.90;;;2.33;;
21550;SDS011;10936;49.836;7.078;2022-08-20T20:44:23;4.30;;;2.40;;
21550;SDS011;10936;49.836;7.078;2022-08-20T20:47:00;3.30;;;2.28;;
21550;SDS011;10936;49.836;7.078;2022-08-20T20:49:33;4.10;;;2.38;;
21550;SDS011;10936;49.836;7.078;2022-08-20T20:52:20;4.32;;;2.45;;
21550;SDS011;10936;49.836;7.078;2022-08-20T20:54:46;6.05;;;2.50;;
21550;SDS011;10936;49.836;7.078;2022-08-20T20:59:44;3.90;;;2.60;;
21550;SDS011;10936;49.836;7.078;2022-08-20T21:02:14;4.35;;;2.25;;
21550;SDS011;10936;49.836;7.078;2022-08-20T21:04:40;4.65;;;2.28;;
21550;SDS011;10936;49.836;7.078;2022-08-20T21:07:09;3.13;;;2.20;;
21550;SDS011;10936;49.836;7.078;2022-08-20T21:09:38;5.90;;;2.55;;
21550;SDS011;10936;49.836;7.078;2022-08-20T21:12:05;3.47;;;2.30;;
21550;SDS011;10936;49.836;7.078;2022-08-20T21:14:33;2.83;;;2.20;;
21550;SDS011;10936;49.836;7.078;2022-08-20T21:17:00;3.00;;;2.20;;
21550;SDS011;10936;49.836;7.078;2022-08-20T21:19:28;3.70;;;2.60;;
21550;SDS011;10936;49.836;7.078;2022-08-20T21:21:54;4.35;;;2.67;;
21550;SDS011;10936;49.836;7.078;2022-08-20T21:24:21;4.30;;;2.67;;
21550;SDS011;10936;49.836;7.078;2022-08-20T21:26:49;2.65;;;2.20;;
21550;SDS011;10936;49.836;7.078;2022-08-20T21:29:16;3.28;;;2.22;;